sensor_id;sensor_type;location;lat;lon;timestamp;pressure;altitude;pressure_sealevel;temperature;humidity
78615;BME280;67937;52.488;20.952;2023-07-31T00:01:05;99973.05;;;18.26;79.55
78615;BME280;67937;52.488;20.952;2023-07-31T00:03:33;99973.09;;;18.25;79.62
78615;BME280;67937;52.488;20.952;2023-07-31T00:06:01;99977.39;;;18.19;79.98
78615;BME280;67937;52.488;20.952;2023-07-31T00:08:29;99975.73;;;18.13;80.37
78615;BME280;67937;52.488;20.952;2023-07-31T00:10:57;99970.38;;;18.10;80.37
78615;BME280;67937;52.488;20.952;2023-07-31T00:13:25;99970.05;;;18.08;80.30
78615;BME280;67937;52.488;20.952;2023-07-31T00:15:53;99980.27;;;18.07;80.59
78615;BME280;67937;52.488;20.952;2023-07-31T00:18:21;99983.12;;;18.08;80.24
78615;BME280;67937;52.488;20.952;2023-07-31T00:20:49;99987.58;;;18.11;80.06
78615;BME280;67937;52.488;20.952;2023-07-31T00:23:17;99983.19;;;18.12;79.76
78615;BME280;67937;52.488;20.952;2023-07-31T00:25:45;99970.94;;;18.12;79.65
78615;BME280;67937;52.488;20.952;2023-07-31T00:28:13;99967.73;;;18.10;79.56
78615;BME280;67937;52.488;20.952;2023-07-31T00:30:41;99970.50;;;18.05;79.37
78615;BME280;67937;52.488;20.952;2023-07-31T00:33:08;99969.44;;;18.00;79.52
78615;BME280;67937;52.488;20.952;2023-07-31T00:35:36;99970.34;;;17.95;79.78
78615;BME280;67937;52.488;20.952;2023-07-31T00:38:04;99971.88;;;17.90;80.04
78615;BME280;67937;52.488;20.952;2023-07-31T00:40:36;99974.64;;;17.88;80.07
78615;BME280;67937;52.488;20.952;2023-07-31T00:43:04;99972.80;;;17.86;80.24
78615;BME280;67937;52.488;20.952;2023-07-31T00:45:32;99973.01;;;17.84;80.25
78615;BME280;67937;52.488;20.952;2023-07-31T00:48:01;99977.24;;;17.82;79.99
78615;BME280;67937;52.488;20.952;2023-07-31T00:50:29;99977.81;;;17.80;80.36
78615;BME280;67937;52.488;20.952;2023-07-31T00:52:57;99983.75;;;17.76;80.48
78615;BME280;67937;52.488;20.952;2023-07-31T00:55:26;99984.46;;;17.75;80.89
78615;BME280;67937;52.488;20.952;2023-07-31T00:57:54;99987.14;;;17.70;80.89
78615;BME280;67937;52.488;20.952;2023-07-31T01:00:23;99982.34;;;17.73;81.10
78615;BME280;67937;52.488;20.952;2023-07-31T01:02:51;99980.04;;;17.71;81.50
78615;BME280;67937;52.488;20.952;2023-07-31T01:05:25;99981.45;;;17.69;81.25
78615;BME280;67937;52.488;20.952;2023-07-31T01:11:12;99979.40;;;17.71;80.96
78615;BME280;67937;52.488;20.952;2023-07-31T01:13:43;99981.02;;;17.74;81.24
78615;BME280;67937;52.488;20.952;2023-07-31T01:16:12;99976.63;;;17.75;81.52
78615;BME280;67937;52.488;20.952;2023-07-31T01:18:40;99972.38;;;17.71;81.55
78615;BME280;67937;52.488;20.952;2023-07-31T01:26:38;99962.73;;;17.65;81.52
78615;BME280;67937;52.488;20.952;2023-07-31T01:29:11;99964.59;;;17.62;81.76
78615;BME280;67937;52.488;20.952;2023-07-31T01:31:46;99969.48;;;17.59;81.90
78615;BME280;67937;52.488;20.952;2023-07-31T01:34:17;99975.27;;;17.53;81.72
78615;BME280;67937;52.488;20.952;2023-07-31T01:36:45;99974.77;;;17.52;81.84
78615;BME280;67937;52.488;20.952;2023-07-31T01:39:13;99975.46;;;17.56;81.84
78615;BME280;67937;52.488;20.952;2023-07-31T01:41:42;99977.49;;;17.56;81.73
78615;BME280;67937;52.488;20.952;2023-07-31T01:44:10;99980.33;;;17.51;81.76
78615;BME280;67937;52.488;20.952;2023-07-31T01:46:38;99978.59;;;17.50;81.67
78615;BME280;67937;52.488;20.952;2023-07-31T01:49:06;99979.20;;;17.46;81.74
78615;BME280;67937;52.488;20.952;2023-07-31T01:51:34;99979.53;;;17.46;82.09
78615;BME280;67937;52.488;20.952;2023-07-31T01:54:02;99978.50;;;17.46;81.91
78615;BME280;67937;52.488;20.952;2023-07-31T01:56:30;99984.89;;;17.38;81.81
78615;BME280;67937;52.488;20.952;2023-07-31T01:58:58;99988.11;;;17.34;81.84
78615;BME280;67937;52.488;20.952;2023-07-31T02:01:26;99990.04;;;17.29;81.90
78615;BME280;67937;52.488;20.952;2023-07-31T02:03:54;99991.05;;;17.23;81.99
78615;BME280;67937;52.488;20.952;2023-07-31T02:06:22;99986.42;;;17.20;82.18
78615;BME280;67937;52.488;20.952;2023-07-31T02:08:50;99989.34;;;17.24;82.03
78615;BME280;67937;52.488;20.952;2023-07-31T02:11:18;99988.17;;;17.25;81.89
78615;BME280;67937;52.488;20.952;2023-07-31T02:13:46;99992.45;;;17.24;81.76
78615;BME280;67937;52.488;20.952;2023-07-31T02:16:14;99995.95;;;17.16;82.10
78615;BME280;67937;52.488;20.952;2023-07-31T02:18:42;99998.86;;;17.13;82.29
78615;BME280;67937;52.488;20.952;2023-07-31T02:21:10;100005.81;;;17.04;82.62
78615;BME280;67937;52.488;20.952;2023-07-31T02:23:38;100012.47;;;16.98;83.06
78615;BME280;67937;52.488;20.952;2023-07-31T02:26:06;100011.52;;;16.91;83.16
78615;BME280;67937;52.488;20.952;2023-07-31T02:28:33;100008.95;;;16.88;83.27
78615;BME280;67937;52.488;20.952;2023-07-31T02:31:01;100004.45;;;16.87;83.08
78615;BME280;67937;52.488;20.952;2023-07-31T02:33:29;100007.17;;;16.87;83.08
78615;BME280;67937;52.488;20.952;2023-07-31T02:35:57;100005.96;;;16.88;83.28
78615;BME280;67937;52.488;20.952;2023-07-31T02:38:25;100009.88;;;16.90;82.80
78615;BME280;67937;52.488;20.952;2023-07-31T02:40:53;100005.35;;;16.90;82.71
78615;BME280;67937;52.488;20.952;2023-07-31T02:43:21;100010.66;;;17.00;83.12
78615;BME280;67937;52.488;20.952;2023-07-31T02:45:52;100020.16;;;16.90;83.54
78615;BME280;67937;52.488;20.952;2023-07-31T02:48:20;100021.04;;;16.84;83.56
78615;BME280;67937;52.488;20.952;2023-07-31T02:50:48;100018.29;;;16.80;83.95
78615;BME280;67937;52.488;20.952;2023-07-31T02:53:16;100014.88;;;16.78;83.82
78615;BME280;67937;52.488;20.952;2023-07-31T02:55:44;100011.48;;;16.83;83.62
78615;BME280;67937;52.488;20.952;2023-07-31T02:58:12;100013.64;;;16.83;83.77
78615;BME280;67937;52.488;20.952;2023-07-31T03:00:43;100019.13;;;16.82;84.07
78615;BME280;67937;52.488;20.952;2023-07-31T03:03:11;100022.44;;;16.74;84.24
78615;BME280;67937;52.488;20.952;2023-07-31T03:05:39;100022.14;;;16.77;84.42
78615;BME280;67937;52.488;20.952;2023-07-31T03:08:07;100020.38;;;16.79;84.28
78615;BME280;67937;52.488;20.952;2023-07-31T03:10:35;100023.09;;;16.75;84.37
78615;BME280;67937;52.488;20.952;2023-07-31T03:13:03;100026.42;;;16.82;84.38
78615;BME280;67937;52.488;20.952;2023-07-31T03:15:31;100030.50;;;16.81;84.44
78615;BME280;67937;52.488;20.952;2023-07-31T03:17:59;100027.32;;;16.75;84.41
78615;BME280;67937;52.488;20.952;2023-07-31T03:20:27;100021.81;;;16.79;84.28
78615;BME280;67937;52.488;20.952;2023-07-31T03:22:55;100027.85;;;16.85;84.17
78615;BME280;67937;52.488;20.952;2023-07-31T03:25:23;100018.03;;;16.85;84.11
78615;BME280;67937;52.488;20.952;2023-07-31T03:27:51;100026.27;;;16.86;84.44
78615;BME280;67937;52.488;20.952;2023-07-31T03:30:19;100028.39;;;16.83;84.26
78615;BME280;67937;52.488;20.952;2023-07-31T03:32:48;100032.05;;;16.82;84.44
78615;BME280;67937;52.488;20.952;2023-07-31T03:35:15;100031.52;;;16.84;84.30
78615;BME280;67937;52.488;20.952;2023-07-31T03:37:43;100031.79;;;16.88;84.55
78615;BME280;67937;52.488;20.952;2023-07-31T03:40:11;100033.83;;;16.89;84.60
78615;BME280;67937;52.488;20.952;2023-07-31T03:42:39;100032.99;;;16.85;84.51
78615;BME280;67937;52.488;20.952;2023-07-31T03:45:08;100037.44;;;16.84;84.61
78615;BME280;67937;52.488;20.952;2023-07-31T03:47:36;100038.10;;;16.89;84.69
78615;BME280;67937;52.488;20.952;2023-07-31T03:50:04;100045.83;;;16.90;84.51
78615;BME280;67937;52.488;20.952;2023-07-31T03:52:32;100044.26;;;16.93;84.51
78615;BME280;67937;52.488;20.952;2023-07-31T03:55:00;100042.84;;;16.94;84.50
78615;BME280;67937;52.488;20.952;2023-07-31T03:57:28;100041.74;;;16.88;84.34
78615;BME280;67937;52.488;20.952;2023-07-31T03:59:59;100047.19;;;16.98;84.21
78615;BME280;67937;52.488;20.952;2023-07-31T04:02:27;100048.56;;;16.97;84.38
78615;BME280;67937;52.488;20.952;2023-07-31T04:04:55;100054.86;;;16.97;84.41
78615;BME280;67937;52.488;20.952;2023-07-31T04:07:23;100057.42;;;16.96;84.35
78615;BME280;67937;52.488;20.952;2023-07-31T04:09:51;100061.19;;;16.98;84.29
78615;BME280;67937;52.488;20.952;2023-07-31T04:12:19;100060.89;;;16.95;84.46
78615;BME280;67937;52.488;20.952;2023-07-31T04:14:47;100060.36;;;17.02;84.07
78615;BME280;67937;52.488;20.952;2023-07-31T04:17:14;100061.09;;;16.98;84.29
78615;BME280;67937;52.488;20.952;2023-07-31T04:19:42;100060.39;;;16.98;84.05
78615;BME280;67937;52.488;20.952;2023-07-31T04:22:10;100063.23;;;17.02;83.96
78615;BME280;67937;52.488;20.952;2023-07-31T04:24:38;100065.23;;;17.03;84.09
78615;BME280;67937;52.488;20.952;2023-07-31T04:27:06;100068.48;;;17.07;84.10
78615;BME280;67937;52.488;20.952;2023-07-31T04:29:34;100072.19;;;17.11;84.29
78615;BME280;67937;52.488;20.952;2023-07-31T04:32:03;100072.11;;;17.10;84.21
78615;BME280;67937;52.488;20.952;2023-07-31T04:34:31;100071.56;;;17.18;83.98
78615;BME280;67937;52.488;20.952;2023-07-31T04:36:58;100072.17;;;17.16;83.71
78615;BME280;67937;52.488;20.952;2023-07-31T04:39:26;100078.92;;;17.17;83.53
78615;BME280;67937;52.488;20.952;2023-07-31T04:41:54;100082.47;;;17.19;83.38
78615;BME280;67937;52.488;20.952;2023-07-31T04:44:23;100081.39;;;17.16;83.33
78615;BME280;67937;52.488;20.952;2023-07-31T04:46:51;100083.74;;;17.18;83.03
78615;BME280;67937;52.488;20.952;2023-07-31T04:49:19;100083.06;;;17.20;83.14
78615;BME280;67937;52.488;20.952;2023-07-31T04:51:47;100085.27;;;17.25;83.09
78615;BME280;67937;52.488;20.952;2023-07-31T04:54:15;100079.34;;;17.28;82.68
78615;BME280;67937;52.488;20.952;2023-07-31T04:56:43;100078.73;;;17.33;81.86
78615;BME280;67937;52.488;20.952;2023-07-31T04:59:11;100071.34;;;17.33;81.76
78615;BME280;67937;52.488;20.952;2023-07-31T05:01:39;100069.94;;;17.37;81.40
78615;BME280;67937;52.488;20.952;2023-07-31T05:04:07;100069.73;;;17.47;80.34
78615;BME280;67937;52.488;20.952;2023-07-31T05:06:35;100073.95;;;17.51;79.95
78615;BME280;67937;52.488;20.952;2023-07-31T05:09:03;100077.77;;;17.53;79.68
78615;BME280;67937;52.488;20.952;2023-07-31T05:11:32;100081.98;;;17.54;79.36
78615;BME280;67937;52.488;20.952;2023-07-31T05:14:00;100079.02;;;17.53;79.39
78615;BME280;67937;52.488;20.952;2023-07-31T05:16:28;100081.20;;;17.53;79.33
78615;BME280;67937;52.488;20.952;2023-07-31T05:18:56;100086.34;;;17.58;79.14
78615;BME280;67937;52.488;20.952;2023-07-31T05:21:24;100091.86;;;17.61;78.67
78615;BME280;67937;52.488;20.952;2023-07-31T05:23:52;100094.85;;;17.66;78.52
78615;BME280;67937;52.488;20.952;2023-07-31T05:26:20;100095.48;;;17.65;78.32
78615;BME280;67937;52.488;20.952;2023-07-31T05:28:49;100095.91;;;17.71;78.03
78615;BME280;67937;52.488;20.952;2023-07-31T05:31:17;100094.83;;;17.71;77.66
78615;BME280;67937;52.488;20.952;2023-07-31T05:33:45;100098.74;;;17.73;77.48
78615;BME280;67937;52.488;20.952;2023-07-31T05:36:13;100096.55;;;17.75;77.69
78615;BME280;67937;52.488;20.952;2023-07-31T05:38:41;100102.33;;;17.83;77.65
78615;BME280;67937;52.488;20.952;2023-07-31T05:41:13;100105.79;;;17.86;77.16
78615;BME280;67937;52.488;20.952;2023-07-31T05:43:41;100104.27;;;17.90;77.27
78615;BME280;67937;52.488;20.952;2023-07-31T05:46:10;100107.34;;;17.93;77.15
78615;BME280;67937;52.488;20.952;2023-07-31T05:48:39;100106.23;;;17.97;77.43
78615;BME280;67937;52.488;20.952;2023-07-31T05:51:08;100102.16;;;18.01;77.43
78615;BME280;67937;52.488;20.952;2023-07-31T05:53:36;100109.19;;;18.02;77.52
78615;BME280;67937;52.488;20.952;2023-07-31T05:56:07;100116.70;;;18.12;77.38
78615;BME280;67937;52.488;20.952;2023-07-31T05:58:35;100119.08;;;18.14;77.07
78615;BME280;67937;52.488;20.952;2023-07-31T06:01:03;100118.16;;;18.16;76.93
78615;BME280;67937;52.488;20.952;2023-07-31T06:03:31;100117.58;;;18.14;76.94
78615;BME280;67937;52.488;20.952;2023-07-31T06:05:59;100119.09;;;18.20;76.82
78615;BME280;67937;52.488;20.952;2023-07-31T06:08:27;100116.24;;;18.28;76.91
78615;BME280;67937;52.488;20.952;2023-07-31T06:10:55;100119.98;;;18.28;76.85
78615;BME280;67937;52.488;20.952;2023-07-31T06:13:23;100132.26;;;18.31;76.81
78615;BME280;67937;52.488;20.952;2023-07-31T06:15:51;100133.08;;;18.33;76.76
78615;BME280;67937;52.488;20.952;2023-07-31T06:18:19;100137.21;;;18.31;76.35
78615;BME280;67937;52.488;20.952;2023-07-31T06:20:47;100134.36;;;18.33;75.73
78615;BME280;67937;52.488;20.952;2023-07-31T06:23:19;100137.52;;;18.29;76.12
78615;BME280;67937;52.488;20.952;2023-07-31T06:25:48;100140.17;;;18.27;76.18
78615;BME280;67937;52.488;20.952;2023-07-31T06:28:16;100139.50;;;18.27;76.12
78615;BME280;67937;52.488;20.952;2023-07-31T06:30:44;100139.20;;;18.28;76.28
78615;BME280;67937;52.488;20.952;2023-07-31T06:33:12;100136.67;;;18.33;76.52
78615;BME280;67937;52.488;20.952;2023-07-31T06:35:40;100136.27;;;18.38;76.70
78615;BME280;67937;52.488;20.952;2023-07-31T06:38:08;100133.08;;;18.39;76.24
78615;BME280;67937;52.488;20.952;2023-07-31T06:40:36;100137.66;;;18.43;76.27
78615;BME280;67937;52.488;20.952;2023-07-31T06:43:05;100142.59;;;18.45;76.28
78615;BME280;67937;52.488;20.952;2023-07-31T06:45:35;100145.56;;;18.50;75.81
78615;BME280;67937;52.488;20.952;2023-07-31T06:48:04;100141.59;;;18.46;75.92
78615;BME280;67937;52.488;20.952;2023-07-31T06:50:32;100143.24;;;18.52;76.14
78615;BME280;67937;52.488;20.952;2023-07-31T06:53:00;100139.27;;;18.69;75.39
78615;BME280;67937;52.488;20.952;2023-07-31T06:55:29;100133.84;;;18.82;74.43
78615;BME280;67937;52.488;20.952;2023-07-31T06:57:57;100140.05;;;18.92;73.84
78615;BME280;67937;52.488;20.952;2023-07-31T07:00:25;100141.52;;;19.07;73.59
78615;BME280;67937;52.488;20.952;2023-07-31T07:02:53;100138.52;;;19.23;73.12
78615;BME280;67937;52.488;20.952;2023-07-31T07:05:21;100137.86;;;19.32;72.98
78615;BME280;67937;52.488;20.952;2023-07-31T07:07:50;100132.86;;;19.54;72.86
78615;BME280;67937;52.488;20.952;2023-07-31T07:10:18;100131.09;;;19.72;71.30
78615;BME280;67937;52.488;20.952;2023-07-31T07:12:47;100129.90;;;19.81;70.28
78615;BME280;67937;52.488;20.952;2023-07-31T07:15:15;100127.83;;;19.72;70.41
78615;BME280;67937;52.488;20.952;2023-07-31T07:17:44;100128.53;;;19.72;70.65
78615;BME280;67937;52.488;20.952;2023-07-31T07:20:12;100131.74;;;19.82;70.29
78615;BME280;67937;52.488;20.952;2023-07-31T07:22:40;100124.18;;;19.80;70.07
78615;BME280;67937;52.488;20.952;2023-07-31T07:25:09;100129.70;;;19.92;69.78
78615;BME280;67937;52.488;20.952;2023-07-31T07:27:37;100133.85;;;20.09;69.71
78615;BME280;67937;52.488;20.952;2023-07-31T07:30:06;100131.45;;;20.24;68.81
78615;BME280;67937;52.488;20.952;2023-07-31T07:32:35;100129.17;;;20.41;67.94
78615;BME280;67937;52.488;20.952;2023-07-31T07:35:03;100126.86;;;20.51;67.97
78615;BME280;67937;52.488;20.952;2023-07-31T07:37:31;100133.26;;;20.66;68.07
78615;BME280;67937;52.488;20.952;2023-07-31T07:40:00;100129.58;;;20.81;68.07
78615;BME280;67937;52.488;20.952;2023-07-31T07:42:29;100126.20;;;20.86;67.83
78615;BME280;67937;52.488;20.952;2023-07-31T07:44:57;100125.41;;;20.81;67.73
78615;BME280;67937;52.488;20.952;2023-07-31T07:47:25;100121.69;;;20.82;67.17
78615;BME280;67937;52.488;20.952;2023-07-31T07:49:53;100125.06;;;20.88;66.95
78615;BME280;67937;52.488;20.952;2023-07-31T07:52:21;100128.46;;;20.91;65.59
78615;BME280;67937;52.488;20.952;2023-07-31T07:54:49;100126.33;;;20.82;66.28
78615;BME280;67937;52.488;20.952;2023-07-31T07:57:17;100132.15;;;20.77;65.66
78615;BME280;67937;52.488;20.952;2023-07-31T07:59:46;100132.20;;;20.66;66.77
78615;BME280;67937;52.488;20.952;2023-07-31T08:02:14;100135.69;;;20.68;67.37
78615;BME280;67937;52.488;20.952;2023-07-31T08:04:42;100135.45;;;20.74;66.63
78615;BME280;67937;52.488;20.952;2023-07-31T08:07:11;100133.78;;;20.72;66.84
78615;BME280;67937;52.488;20.952;2023-07-31T08:09:40;100132.10;;;20.85;67.14
78615;BME280;67937;52.488;20.952;2023-07-31T08:12:08;100128.97;;;20.94;67.40
78615;BME280;67937;52.488;20.952;2023-07-31T08:14:36;100127.35;;;21.00;66.93
78615;BME280;67937;52.488;20.952;2023-07-31T08:17:04;100129.83;;;20.96;67.09
78615;BME280;67937;52.488;20.952;2023-07-31T08:19:33;100131.03;;;21.03;65.54
78615;BME280;67937;52.488;20.952;2023-07-31T08:22:01;100128.74;;;20.94;66.35
78615;BME280;67937;52.488;20.952;2023-07-31T08:24:29;100134.48;;;21.04;67.04
78615;BME280;67937;52.488;20.952;2023-07-31T08:26:58;100128.37;;;21.23;65.80
78615;BME280;67937;52.488;20.952;2023-07-31T08:29:26;100133.44;;;21.39;65.71
78615;BME280;67937;52.488;20.952;2023-07-31T08:31:54;100139.70;;;21.50;65.13
78615;BME280;67937;52.488;20.952;2023-07-31T08:34:22;100138.70;;;21.54;65.13
78615;BME280;67937;52.488;20.952;2023-07-31T08:36:50;100137.36;;;21.59;65.26
78615;BME280;67937;52.488;20.952;2023-07-31T08:39:18;100143.59;;;21.67;65.43
78615;BME280;67937;52.488;20.952;2023-07-31T08:41:47;100142.80;;;21.73;65.05
78615;BME280;67937;52.488;20.952;2023-07-31T08:44:16;100134.70;;;21.71;64.18
78615;BME280;67937;52.488;20.952;2023-07-31T08:46:46;100137.31;;;21.60;64.46
78615;BME280;67937;52.488;20.952;2023-07-31T08:49:16;100139.61;;;21.49;65.36
78615;BME280;67937;52.488;20.952;2023-07-31T08:51:46;100136.84;;;21.47;65.11
78615;BME280;67937;52.488;20.952;2023-07-31T08:54:17;100142.15;;;21.47;64.84
78615;BME280;67937;52.488;20.952;2023-07-31T08:56:46;100147.32;;;21.51;65.35
78615;BME280;67937;52.488;20.952;2023-07-31T08:59:15;100143.67;;;21.57;64.85
78615;BME280;67937;52.488;20.952;2023-07-31T09:01:46;100140.98;;;21.57;64.49
78615;BME280;67937;52.488;20.952;2023-07-31T09:04:18;100143.77;;;21.57;64.24
78615;BME280;67937;52.488;20.952;2023-07-31T09:06:48;100139.95;;;21.66;64.46
78615;BME280;67937;52.488;20.952;2023-07-31T09:09:16;100136.30;;;21.82;64.11
78615;BME280;67937;52.488;20.952;2023-07-31T09:11:44;100135.50;;;21.84;63.13
78615;BME280;67937;52.488;20.952;2023-07-31T09:14:13;100133.80;;;22.00;62.93
78615;BME280;67937;52.488;20.952;2023-07-31T09:16:57;100131.93;;;22.00;63.14
78615;BME280;67937;52.488;20.952;2023-07-31T09:19:34;100135.80;;;22.17;61.95
78615;BME280;67937;52.488;20.952;2023-07-31T09:22:07;100135.70;;;22.23;61.31
78615;BME280;67937;52.488;20.952;2023-07-31T09:24:35;100141.46;;;22.31;60.78
78615;BME280;67937;52.488;20.952;2023-07-31T09:27:03;100139.94;;;22.23;60.31
78615;BME280;67937;52.488;20.952;2023-07-31T09:29:31;100139.86;;;22.16;59.38
78615;BME280;67937;52.488;20.952;2023-07-31T09:31:59;100140.92;;;22.15;59.42
78615;BME280;67937;52.488;20.952;2023-07-31T09:34:29;100141.48;;;22.16;58.07
78615;BME280;67937;52.488;20.952;2023-07-31T09:36:58;100137.27;;;22.13;57.70
78615;BME280;67937;52.488;20.952;2023-07-31T09:39:29;100134.38;;;21.99;57.48
78615;BME280;67937;52.488;20.952;2023-07-31T09:41:59;100138.26;;;22.04;56.70
78615;BME280;67937;52.488;20.952;2023-07-31T09:44:39;100141.16;;;22.04;56.93
78615;BME280;67937;52.488;20.952;2023-07-31T09:47:22;100142.29;;;21.98;57.31
78615;BME280;67937;52.488;20.952;2023-07-31T09:49:52;100142.02;;;22.01;56.58
78615;BME280;67937;52.488;20.952;2023-07-31T09:52:20;100144.83;;;22.14;56.86
78615;BME280;67937;52.488;20.952;2023-07-31T09:54:51;100145.56;;;22.29;57.07
78615;BME280;67937;52.488;20.952;2023-07-31T09:57:23;100144.95;;;22.32;56.47
78615;BME280;67937;52.488;20.952;2023-07-31T09:59:52;100145.83;;;22.32;54.47
78615;BME280;67937;52.488;20.952;2023-07-31T10:02:22;100150.15;;;22.24;54.99
78615;BME280;67937;52.488;20.952;2023-07-31T10:04:53;100149.57;;;22.26;53.58
78615;BME280;67937;52.488;20.952;2023-07-31T10:07:25;100149.74;;;22.24;53.92
78615;BME280;67937;52.488;20.952;2023-07-31T10:09:55;100145.79;;;22.30;53.53
78615;BME280;67937;52.488;20.952;2023-07-31T10:12:26;100147.05;;;22.35;53.41
78615;BME280;67937;52.488;20.952;2023-07-31T10:14:55;100145.93;;;22.37;53.35
78615;BME280;67937;52.488;20.952;2023-07-31T10:17:26;100147.33;;;22.42;53.82
78615;BME280;67937;52.488;20.952;2023-07-31T10:19:56;100147.34;;;22.52;52.60
78615;BME280;67937;52.488;20.952;2023-07-31T10:22:26;100148.02;;;22.47;52.62
78615;BME280;67937;52.488;20.952;2023-07-31T10:24:58;100141.90;;;22.52;53.78
78615;BME280;67937;52.488;20.952;2023-07-31T10:27:29;100146.39;;;22.74;51.82
78615;BME280;67937;52.488;20.952;2023-07-31T10:29:58;100141.23;;;22.69;51.50
78615;BME280;67937;52.488;20.952;2023-07-31T10:32:28;100143.73;;;22.76;51.64
78615;BME280;67937;52.488;20.952;2023-07-31T10:34:57;100140.16;;;22.76;50.34
78615;BME280;67937;52.488;20.952;2023-07-31T10:37:30;100140.02;;;22.84;49.87
78615;BME280;67937;52.488;20.952;2023-07-31T10:40:04;100139.45;;;22.73;51.45
78615;BME280;67937;52.488;20.952;2023-07-31T10:42:35;100139.80;;;22.76;52.31
78615;BME280;67937;52.488;20.952;2023-07-31T10:45:07;100137.98;;;22.86;51.85
78615;BME280;67937;52.488;20.952;2023-07-31T10:47:46;100135.17;;;22.83;51.20
78615;BME280;67937;52.488;20.952;2023-07-31T10:50:21;100136.09;;;22.89;50.71
78615;BME280;67937;52.488;20.952;2023-07-31T10:52:52;100137.42;;;22.89;49.71
78615;BME280;67937;52.488;20.952;2023-07-31T10:55:33;100138.17;;;22.87;49.58
78615;BME280;67937;52.488;20.952;2023-07-31T10:58:09;100134.89;;;22.93;49.27
78615;BME280;67937;52.488;20.952;2023-07-31T11:00:44;100134.11;;;22.95;51.29
78615;BME280;67937;52.488;20.952;2023-07-31T11:03:16;100133.75;;;23.01;51.10
78615;BME280;67937;52.488;20.952;2023-07-31T11:05:52;100133.55;;;23.10;50.43
78615;BME280;67937;52.488;20.952;2023-07-31T11:13:48;100122.38;;;23.14;49.59
78615;BME280;67937;52.488;20.952;2023-07-31T11:16:18;100129.47;;;23.11;49.73
78615;BME280;67937;52.488;20.952;2023-07-31T11:18:48;100131.85;;;23.06;47.23
78615;BME280;67937;52.488;20.952;2023-07-31T11:21:22;100134.43;;;22.89;46.64
78615;BME280;67937;52.488;20.952;2023-07-31T11:23:53;100129.69;;;22.85;47.52
78615;BME280;67937;52.488;20.952;2023-07-31T11:26:23;100134.30;;;22.84;48.28
78615;BME280;67937;52.488;20.952;2023-07-31T11:28:51;100137.11;;;22.81;47.34
78615;BME280;67937;52.488;20.952;2023-07-31T11:31:20;100129.94;;;22.84;47.37
78615;BME280;67937;52.488;20.952;2023-07-31T11:33:48;100128.64;;;22.80;48.32
78615;BME280;67937;52.488;20.952;2023-07-31T11:36:19;100126.31;;;22.81;48.23
78615;BME280;67937;52.488;20.952;2023-07-31T11:38:48;100129.35;;;22.83;47.88
78615;BME280;67937;52.488;20.952;2023-07-31T11:41:16;100126.20;;;22.89;48.00
78615;BME280;67937;52.488;20.952;2023-07-31T11:43:46;100131.70;;;22.98;48.83
78615;BME280;67937;52.488;20.952;2023-07-31T11:46:15;100127.92;;;23.02;48.31
78615;BME280;67937;52.488;20.952;2023-07-31T11:48:45;100126.30;;;22.95;49.22
78615;BME280;67937;52.488;20.952;2023-07-31T11:51:14;100123.56;;;22.99;48.93
78615;BME280;67937;52.488;20.952;2023-07-31T11:53:48;100117.63;;;22.98;48.67
78615;BME280;67937;52.488;20.952;2023-07-31T11:56:19;100114.40;;;23.01;49.91
78615;BME280;67937;52.488;20.952;2023-07-31T11:58:51;100111.66;;;23.07;50.62
78615;BME280;67937;52.488;20.952;2023-07-31T12:01:22;100107.17;;;23.18;50.83
78615;BME280;67937;52.488;20.952;2023-07-31T12:03:51;100102.15;;;23.23;49.46
78615;BME280;67937;52.488;20.952;2023-07-31T12:06:20;100105.84;;;23.05;50.11
78615;BME280;67937;52.488;20.952;2023-07-31T12:08:49;100100.86;;;23.07;50.05
78615;BME280;67937;52.488;20.952;2023-07-31T12:11:18;100105.27;;;23.05;49.98
78615;BME280;67937;52.488;20.952;2023-07-31T12:13:46;100102.51;;;22.95;49.76
78615;BME280;67937;52.488;20.952;2023-07-31T12:16:14;100100.74;;;22.83;49.97
78615;BME280;67937;52.488;20.952;2023-07-31T12:18:43;100098.78;;;22.72;50.77
78615;BME280;67937;52.488;20.952;2023-07-31T12:21:12;100093.63;;;22.70;51.17
78615;BME280;67937;52.488;20.952;2023-07-31T12:23:40;100091.09;;;22.73;51.74
78615;BME280;67937;52.488;20.952;2023-07-31T12:26:14;100088.34;;;22.72;51.32
78615;BME280;67937;52.488;20.952;2023-07-31T12:28:45;100088.12;;;22.63;52.25
78615;BME280;67937;52.488;20.952;2023-07-31T12:31:18;100084.98;;;22.62;52.31
78615;BME280;67937;52.488;20.952;2023-07-31T12:33:48;100080.92;;;22.74;52.47
78615;BME280;67937;52.488;20.952;2023-07-31T12:36:18;100077.83;;;22.79;51.95
78615;BME280;67937;52.488;20.952;2023-07-31T12:38:46;100076.33;;;22.85;50.67
78615;BME280;67937;52.488;20.952;2023-07-31T12:41:15;100066.42;;;22.89;50.58
78615;BME280;67937;52.488;20.952;2023-07-31T12:43:44;100064.02;;;22.93;50.30
78615;BME280;67937;52.488;20.952;2023-07-31T12:46:12;100059.64;;;22.90;50.26
78615;BME280;67937;52.488;20.952;2023-07-31T12:48:41;100059.56;;;22.90;51.35
78615;BME280;67937;52.488;20.952;2023-07-31T12:51:09;100053.88;;;23.01;51.92
78615;BME280;67937;52.488;20.952;2023-07-31T12:53:37;100049.08;;;23.28;52.45
78615;BME280;67937;52.488;20.952;2023-07-31T12:56:05;100047.80;;;23.49;51.56
78615;BME280;67937;52.488;20.952;2023-07-31T12:58:33;100045.26;;;23.64;50.40
78615;BME280;67937;52.488;20.952;2023-07-31T13:01:02;100045.06;;;23.72;49.82
78615;BME280;67937;52.488;20.952;2023-07-31T13:03:30;100038.02;;;23.77;50.08
78615;BME280;67937;52.488;20.952;2023-07-31T13:05:58;100035.70;;;23.78;48.94